sensor_id;sensor_type;location;lat;lon;timestamp;pressure;altitude;pressure_sealevel;temperature;humidity
15529;BME280;7866;52.280;9.500;2023-04-15T00:02:55;99636.47;;;7.99;76.86
15529;BME280;7866;52.280;9.500;2023-04-15T00:07:57;99641.44;;;8.10;76.80
15529;BME280;7866;52.280;9.500;2023-04-15T00:12:59;99642.81;;;7.98;76.31
15529;BME280;7866;52.280;9.500;2023-04-15T00:18:03;99651.28;;;8.02;76.60
15529;BME280;7866;52.280;9.500;2023-04-15T00:23:05;99643.81;;;7.89;76.80
15529;BME280;7866;52.280;9.500;2023-04-15T00:28:07;99634.44;;;8.01;77.32
15529;BME280;7866;52.280;9.500;2023-04-15T00:33:11;99620.31;;;7.93;76.83
15529;BME280;7866;52.280;9.500;2023-04-15T00:38:13;99633.13;;;7.97;77.21
15529;BME280;7866;52.280;9.500;2023-04-15T00:43:14;99611.13;;;8.03;77.28
15529;BME280;7866;52.280;9.500;2023-04-15T00:48:19;99605.94;;;8.10;76.86
15529;BME280;7866;52.280;9.500;2023-04-15T00:53:21;99616.59;;;8.02;76.54
15529;BME280;7866;52.280;9.500;2023-04-15T00:58:22;99603.78;;;7.97;76.89
15529;BME280;7866;52.280;9.500;2023-04-15T01:03:26;99587.97;;;7.96;76.61
15529;BME280;7866;52.280;9.500;2023-04-15T01:08:30;99595.66;;;7.90;76.71
15529;BME280;7866;52.280;9.500;2023-04-15T01:13:33;99580.16;;;7.94;77.03
15529;BME280;7866;52.280;9.500;2023-04-15T01:18:36;99597.94;;;8.02;77.25
15529;BME280;7866;52.280;9.500;2023-04-15T01:23:38;99601.09;;;8.13;76.20
15529;BME280;7866;52.280;9.500;2023-04-15T01:28:41;99596.13;;;8.02;76.65
15529;BME280;7866;52.280;9.500;2023-04-15T01:33:44;99596.63;;;8.06;77.29
15529;BME280;7866;52.280;9.500;2023-04-15T01:38:46;99605.03;;;8.26;76.98
15529;BME280;7866;52.280;9.500;2023-04-15T01:43:50;99590.03;;;8.25;76.63
15529;BME280;7866;52.280;9.500;2023-04-15T01:48:51;99593.56;;;8.17;76.61
15529;BME280;7866;52.280;9.500;2023-04-15T01:53:53;99589.75;;;8.20;76.95
15529;BME280;7866;52.280;9.500;2023-04-15T01:58:57;99600.63;;;8.10;77.37
15529;BME280;7866;52.280;9.500;2023-04-15T02:03:59;99595.44;;;8.08;77.63
15529;BME280;7866;52.280;9.500;2023-04-15T02:09:01;99584.44;;;8.11;77.72
15529;BME280;7866;52.280;9.500;2023-04-15T02:14:05;99574.06;;;8.17;77.21
15529;BME280;7866;52.280;9.500;2023-04-15T02:19:06;99584.31;;;7.97;77.81
15529;BME280;7866;52.280;9.500;2023-04-15T02:24:08;99574.13;;;8.00;78.62
15529;BME280;7866;52.280;9.500;2023-04-15T02:29:12;99577.47;;;8.02;77.93
15529;BME280;7866;52.280;9.500;2023-04-15T02:34:14;99580.63;;;7.98;78.61
15529;BME280;7866;52.280;9.500;2023-04-15T02:39:16;99571.19;;;7.87;79.03
15529;BME280;7866;52.280;9.500;2023-04-15T02:44:19;99550.13;;;8.00;78.33
15529;BME280;7866;52.280;9.500;2023-04-15T02:49:23;99567.50;;;7.88;78.66
15529;BME280;7866;52.280;9.500;2023-04-15T02:54:25;99576.47;;;8.03;79.73
15529;BME280;7866;52.280;9.500;2023-04-15T02:59:29;99584.13;;;8.06;78.76
15529;BME280;7866;52.280;9.500;2023-04-15T03:04:31;99589.03;;;8.26;78.59
15529;BME280;7866;52.280;9.500;2023-04-15T03:09:32;99594.72;;;8.23;78.33
15529;BME280;7866;52.280;9.500;2023-04-15T03:14:37;99603.88;;;8.28;78.31
15529;BME280;7866;52.280;9.500;2023-04-15T03:19:38;99614.06;;;8.17;79.25
15529;BME280;7866;52.280;9.500;2023-04-15T03:24:40;99562.13;;;8.04;79.91
15529;BME280;7866;52.280;9.500;2023-04-15T03:29:43;99601.06;;;8.30;78.36
15529;BME280;7866;52.280;9.500;2023-04-15T03:34:45;99575.91;;;8.16;78.91
15529;BME280;7866;52.280;9.500;2023-04-15T03:39:46;99583.88;;;8.24;78.85
15529;BME280;7866;52.280;9.500;2023-04-15T03:44:49;99576.09;;;8.14;79.64
15529;BME280;7866;52.280;9.500;2023-04-15T03:49:51;99584.59;;;8.18;80.19
15529;BME280;7866;52.280;9.500;2023-04-15T03:54:53;99586.59;;;8.08;80.33
15529;BME280;7866;52.280;9.500;2023-04-15T03:59:56;99599.75;;;8.09;80.56
15529;BME280;7866;52.280;9.500;2023-04-15T04:04:58;99581.88;;;7.79;82.01
15529;BME280;7866;52.280;9.500;2023-04-15T04:10:00;99583.53;;;7.80;82.88
15529;BME280;7866;52.280;9.500;2023-04-15T04:15:05;99604.31;;;7.93;82.80
15529;BME280;7866;52.280;9.500;2023-04-15T04:20:07;99606.31;;;7.99;82.01
15529;BME280;7866;52.280;9.500;2023-04-15T04:25:09;99603.19;;;7.71;83.57
15529;BME280;7866;52.280;9.500;2023-04-15T04:30:13;99605.84;;;7.87;82.80
15529;BME280;7866;52.280;9.500;2023-04-15T04:35:14;99630.47;;;7.89;82.51
15529;BME280;7866;52.280;9.500;2023-04-15T04:40:16;99604.03;;;7.63;84.02
15529;BME280;7866;52.280;9.500;2023-04-15T04:45:20;99610.38;;;7.70;84.39
15529;BME280;7866;52.280;9.500;2023-04-15T04:50:22;99604.84;;;7.72;84.97
15529;BME280;7866;52.280;9.500;2023-04-15T04:55:23;99599.84;;;7.69;84.27
15529;BME280;7866;52.280;9.500;2023-04-15T05:00:26;99584.38;;;7.56;84.32
15529;BME280;7866;52.280;9.500;2023-04-15T05:05:29;99614.84;;;7.53;85.60
15529;BME280;7866;52.280;9.500;2023-04-15T05:10:30;99615.22;;;7.58;86.38
15529;BME280;7866;52.280;9.500;2023-04-15T05:15:33;99605.38;;;7.51;87.35
15529;BME280;7866;52.280;9.500;2023-04-15T05:20:36;99600.06;;;7.51;87.68
15529;BME280;7866;52.280;9.500;2023-04-15T05:25:38;99592.88;;;7.51;87.36
15529;BME280;7866;52.280;9.500;2023-04-15T05:30:41;99607.84;;;7.77;87.52
15529;BME280;7866;52.280;9.500;2023-04-15T05:35:43;99603.03;;;7.56;87.45
15529;BME280;7866;52.280;9.500;2023-04-15T05:40:44;99615.19;;;7.67;88.06
15529;BME280;7866;52.280;9.500;2023-04-15T05:45:48;99616.19;;;7.65;87.48
15529;BME280;7866;52.280;9.500;2023-04-15T05:50:49;99617.69;;;7.60;88.06
15529;BME280;7866;52.280;9.500;2023-04-15T05:55:51;99607.53;;;7.55;88.26
15529;BME280;7866;52.280;9.500;2023-04-15T06:00:54;99610.22;;;7.55;87.63
15529;BME280;7866;52.280;9.500;2023-04-15T06:05:56;99624.53;;;7.62;88.52
15529;BME280;7866;52.280;9.500;2023-04-15T06:10:58;99600.22;;;7.41;89.47
15529;BME280;7866;52.280;9.500;2023-04-15T06:16:01;99635.34;;;7.53;90.64
15529;BME280;7866;52.280;9.500;2023-04-15T06:21:03;99625.00;;;7.58;90.01
15529;BME280;7866;52.280;9.500;2023-04-15T06:26:05;99624.34;;;7.64;90.28
15529;BME280;7866;52.280;9.500;2023-04-15T06:31:08;99602.03;;;7.65;90.75
15529;BME280;7866;52.280;9.500;2023-04-15T06:36:10;99628.34;;;7.68;91.42
15529;BME280;7866;52.280;9.500;2023-04-15T06:41:12;99621.00;;;7.78;91.21
15529;BME280;7866;52.280;9.500;2023-04-15T06:46:15;99605.38;;;7.67;90.20
15529;BME280;7866;52.280;9.500;2023-04-15T06:51:17;99626.47;;;7.93;90.52
15529;BME280;7866;52.280;9.500;2023-04-15T06:56:19;99628.66;;;7.73;91.00
15529;BME280;7866;52.280;9.500;2023-04-15T07:01:22;99628.00;;;7.79;90.47
15529;BME280;7866;52.280;9.500;2023-04-15T07:06:24;99638.00;;;7.69;93.08
15529;BME280;7866;52.280;9.500;2023-04-15T07:11:26;99641.13;;;7.89;93.21
15529;BME280;7866;52.280;9.500;2023-04-15T07:16:29;99643.81;;;7.73;92.83
15529;BME280;7866;52.280;9.500;2023-04-15T07:21:31;99633.47;;;7.78;93.23
15529;BME280;7866;52.280;9.500;2023-04-15T07:26:33;99643.28;;;7.94;92.49
15529;BME280;7866;52.280;9.500;2023-04-15T07:31:36;99604.19;;;7.70;91.29
15529;BME280;7866;52.280;9.500;2023-04-15T07:36:38;99630.47;;;7.89;91.81
15529;BME280;7866;52.280;9.500;2023-04-15T07:41:39;99646.97;;;7.93;91.95
15529;BME280;7866;52.280;9.500;2023-04-15T07:46:42;99637.81;;;7.87;92.11
15529;BME280;7866;52.280;9.500;2023-04-15T07:51:44;99637.66;;;7.72;90.50
15529;BME280;7866;52.280;9.500;2023-04-15T07:56:49;99640.47;;;7.95;90.40
15529;BME280;7866;52.280;9.500;2023-04-15T08:01:57;99672.25;;;8.21;91.60
15529;BME280;7866;52.280;9.500;2023-04-15T08:06:59;99669.47;;;8.06;91.88
15529;BME280;7866;52.280;9.500;2023-04-15T08:12:00;99667.28;;;8.18;92.92
15529;BME280;7866;52.280;9.500;2023-04-15T08:17:03;99676.78;;;8.04;93.49
15529;BME280;7866;52.280;9.500;2023-04-15T08:22:06;99672.63;;;8.10;94.03
15529;BME280;7866;52.280;9.500;2023-04-15T08:27:07;99682.09;;;8.21;93.02
15529;BME280;7866;52.280;9.500;2023-04-15T08:32:10;99681.75;;;8.24;92.78
15529;BME280;7866;52.280;9.500;2023-04-15T08:37:12;99695.75;;;8.42;92.92
15529;BME280;7866;52.280;9.500;2023-04-15T08:42:16;99690.41;;;8.42;92.09
15529;BME280;7866;52.280;9.500;2023-04-15T08:47:19;99682.06;;;8.37;92.14
15529;BME280;7866;52.280;9.500;2023-04-15T08:52:23;99681.03;;;8.54;91.79
15529;BME280;7866;52.280;9.500;2023-04-15T08:57:25;99683.69;;;8.54;91.41
15529;BME280;7866;52.280;9.500;2023-04-15T09:02:29;99686.69;;;8.59;91.09
15529;BME280;7866;52.280;9.500;2023-04-15T09:07:32;99695.22;;;8.55;92.48
15529;BME280;7866;52.280;9.500;2023-04-15T09:12:34;99694.06;;;8.41;92.07
15529;BME280;7866;52.280;9.500;2023-04-15T09:17:41;99706.88;;;8.46;91.33
15529;BME280;7866;52.280;9.500;2023-04-15T09:22:46;99707.91;;;8.45;91.56
15529;BME280;7866;52.280;9.500;2023-04-15T09:27:48;99713.72;;;8.56;92.47
15529;BME280;7866;52.280;9.500;2023-04-15T09:32:53;99711.72;;;8.58;92.83
15529;BME280;7866;52.280;9.500;2023-04-15T09:38:01;99718.91;;;8.50;92.35
15529;BME280;7866;52.280;9.500;2023-04-15T09:43:04;99718.72;;;8.51;93.41
15529;BME280;7866;52.280;9.500;2023-04-15T09:48:16;99729.03;;;8.62;93.64
15529;BME280;7866;52.280;9.500;2023-04-15T09:53:19;99727.22;;;8.63;93.62
15529;BME280;7866;52.280;9.500;2023-04-15T09:58:22;99733.19;;;8.65;93.29
15529;BME280;7866;52.280;9.500;2023-04-15T10:03:27;99730.38;;;8.67;94.08
15529;BME280;7866;52.280;9.500;2023-04-15T10:08:30;99738.38;;;8.67;95.43
15529;BME280;7866;52.280;9.500;2023-04-15T10:13:32;99743.19;;;8.71;94.31
15529;BME280;7866;52.280;9.500;2023-04-15T10:18:41;99755.88;;;8.61;97.60
15529;BME280;7866;52.280;9.500;2023-04-15T10:23:44;99749.06;;;8.67;97.25
15529;BME280;7866;52.280;9.500;2023-04-15T10:28:46;99755.88;;;8.69;97.44
15529;BME280;7866;52.280;9.500;2023-04-15T10:33:49;99760.06;;;8.63;99.37
15529;BME280;7866;52.280;9.500;2023-04-15T10:38:52;99746.75;;;8.55;100.00
15529;BME280;7866;52.280;9.500;2023-04-15T10:43:54;99753.66;;;8.81;98.47
15529;BME280;7866;52.280;9.500;2023-04-15T10:49:06;99755.81;;;8.85;97.97
15529;BME280;7866;52.280;9.500;2023-04-15T10:54:12;99759.94;;;8.96;97.54
15529;BME280;7866;52.280;9.500;2023-04-15T10:59:15;99762.66;;;8.88;97.35
15529;BME280;7866;52.280;9.500;2023-04-15T11:04:54;99763.34;;;8.90;98.33
15529;BME280;7866;52.280;9.500;2023-04-15T11:09:56;99758.59;;;9.00;98.06
15529;BME280;7866;52.280;9.500;2023-04-15T11:14:58;99763.78;;;9.02;97.53
15529;BME280;7866;52.280;9.500;2023-04-15T11:20:01;99764.25;;;9.05;97.17
15529;BME280;7866;52.280;9.500;2023-04-15T11:25:05;99768.72;;;9.13;96.83
15529;BME280;7866;52.280;9.500;2023-04-15T11:30:17;99763.53;;;9.20;97.06
15529;BME280;7866;52.280;9.500;2023-04-15T11:35:20;99771.91;;;9.08;98.55
15529;BME280;7866;52.280;9.500;2023-04-15T11:40:23;99778.91;;;9.18;99.72
15529;BME280;7866;52.280;9.500;2023-04-15T11:45:26;99773.25;;;9.12;100.00
15529;BME280;7866;52.280;9.500;2023-04-15T11:50:29;99781.59;;;9.18;100.00
15529;BME280;7866;52.280;9.500;2023-04-15T11:55:40;99790.03;;;9.29;100.00
15529;BME280;7866;52.280;9.500;2023-04-15T12:00:47;99795.38;;;9.29;100.00
15529;BME280;7866;52.280;9.500;2023-04-15T12:06:10;99800.16;;;9.42;99.92
15529;BME280;7866;52.280;9.500;2023-04-15T12:11:12;99810.53;;;9.37;100.00
15529;BME280;7866;52.280;9.500;2023-04-15T12:16:16;99812.56;;;9.35;100.00
15529;BME280;7866;52.280;9.500;2023-04-15T12:21:19;99823.25;;;9.35;100.00
15529;BME280;7866;52.280;9.500;2023-04-15T12:26:26;99829.72;;;9.41;100.00
15529;BME280;7866;52.280;9.500;2023-04-15T12:31:28;99844.38;;;9.53;100.00
15529;BME280;7866;52.280;9.500;2023-04-15T12:36:31;99840.25;;;9.42;100.00
15529;BME280;7866;52.280;9.500;2023-04-15T12:41:36;99854.72;;;9.56;100.00
15529;BME280;7866;52.280;9.500;2023-04-15T12:46:38;99858.16;;;9.65;100.00
15529;BME280;7866;52.280;9.500;2023-04-15T12:51:42;99860.31;;;9.69;100.00
15529;BME280;7866;52.280;9.500;2023-04-15T12:56:44;99864.16;;;9.75;100.00
15529;BME280;7866;52.280;9.500;2023-04-15T13:01:46;99862.00;;;9.70;100.00
15529;BME280;7866;52.280;9.500;2023-04-15T13:06:49;99872.81;;;9.77;100.00
15529;BME280;7866;52.280;9.500;2023-04-15T13:11:51;99883.41;;;9.70;100.00
15529;BME280;7866;52.280;9.500;2023-04-15T13:16:53;99883.22;;;9.72;100.00
15529;BME280;7866;52.280;9.500;2023-04-15T13:21:56;99885.34;;;9.76;100.00
15529;BME280;7866;52.280;9.500;2023-04-15T13:26:58;99900.38;;;9.85;100.00
15529;BME280;7866;52.280;9.500;2023-04-15T13:32:00;99903.88;;;9.86;100.00
15529;BME280;7866;52.280;9.500;2023-04-15T13:37:06;99897.75;;;10.00;100.00
15529;BME280;7866;52.280;9.500;2023-04-15T13:42:08;99911.09;;;10.08;100.00
15529;BME280;7866;52.280;9.500;2023-04-15T13:47:10;99913.91;;;10.15;100.00
15529;BME280;7866;52.280;9.500;2023-04-15T13:52:13;99913.34;;;10.28;100.00
15529;BME280;7866;52.280;9.500;2023-04-15T13:57:15;99913.94;;;10.38;100.00
15529;BME280;7866;52.280;9.500;2023-04-15T14:02:17;99917.75;;;10.44;100.00
15529;BME280;7866;52.280;9.500;2023-04-15T14:07:20;99922.94;;;10.45;100.00
15529;BME280;7866;52.280;9.500;2023-04-15T14:12:21;99922.53;;;10.33;100.00
15529;BME280;7866;52.280;9.500;2023-04-15T14:17:23;99936.97;;;10.47;100.00
15529;BME280;7866;52.280;9.500;2023-04-15T14:22:26;99932.97;;;10.66;100.00
15529;BME280;7866;52.280;9.500;2023-04-15T14:27:28;99944.44;;;10.98;99.67
15529;BME280;7866;52.280;9.500;2023-04-15T14:32:29;99952.78;;;11.18;97.94
15529;BME280;7866;52.280;9.500;2023-04-15T14:37:32;99952.63;;;11.34;95.86
15529;BME280;7866;52.280;9.500;2023-04-15T14:42:35;99946.91;;;11.37;95.00
15529;BME280;7866;52.280;9.500;2023-04-15T14:47:37;99961.28;;;11.36;95.62
15529;BME280;7866;52.280;9.500;2023-04-15T14:52:40;99965.56;;;11.60;95.03
15529;BME280;7866;52.280;9.500;2023-04-15T14:57:42;99965.56;;;11.60;93.91
15529;BME280;7866;52.280;9.500;2023-04-15T15:02:43;99970.94;;;11.45;94.74
15529;BME280;7866;52.280;9.500;2023-04-15T15:07:48;99977.22;;;11.52;94.80
15529;BME280;7866;52.280;9.500;2023-04-15T15:12:49;99980.66;;;11.46;94.85
15529;BME280;7866;52.280;9.500;2023-04-15T15:17:52;99985.91;;;11.54;94.55
15529;BME280;7866;52.280;9.500;2023-04-15T15:22:55;99986.38;;;11.43;94.45
15529;BME280;7866;52.280;9.500;2023-04-15T15:27:57;99990.97;;;11.34;94.44
15529;BME280;7866;52.280;9.500;2023-04-15T15:32:58;99994.13;;;11.38;94.82
15529;BME280;7866;52.280;9.500;2023-04-15T15:38:01;99995.16;;;11.37;94.60
15529;BME280;7866;52.280;9.500;2023-04-15T15:43:03;99997.91;;;11.44;94.78
15529;BME280;7866;52.280;9.500;2023-04-15T15:48:05;100008.09;;;11.48;94.74
15529;BME280;7866;52.280;9.500;2023-04-15T15:53:08;100004.69;;;11.54;95.25
15529;BME280;7866;52.280;9.500;2023-04-15T15:58:11;100013.94;;;11.52;94.60
15529;BME280;7866;52.280;9.500;2023-04-15T16:03:13;100020.34;;;11.66;94.39
15529;BME280;7866;52.280;9.500;2023-04-15T16:08:16;100029.03;;;11.68;93.82
15529;BME280;7866;52.280;9.500;2023-04-15T16:13:19;100027.94;;;11.77;94.37
15529;BME280;7866;52.280;9.500;2023-04-15T16:18:20;100029.94;;;11.75;93.99
15529;BME280;7866;52.280;9.500;2023-04-15T16:23:23;100047.06;;;11.74;94.36
15529;BME280;7866;52.280;9.500;2023-04-15T16:28:25;100049.00;;;11.80;93.91
15529;BME280;7866;52.280;9.500;2023-04-15T16:33:27;100055.88;;;11.82;94.15
15529;BME280;7866;52.280;9.500;2023-04-15T16:38:30;100057.88;;;11.80;93.55
15529;BME280;7866;52.280;9.500;2023-04-15T16:43:31;100060.13;;;11.77;93.64
15529;BME280;7866;52.280;9.500;2023-04-15T16:48:33;100052.72;;;11.79;93.42
15529;BME280;7866;52.280;9.500;2023-04-15T16:53:36;100060.66;;;11.72;93.67
15529;BME280;7866;52.280;9.500;2023-04-15T16:58:38;100058.88;;;11.65;93.57
15529;BME280;7866;52.280;9.500;2023-04-15T17:03:39;100080.06;;;11.59;95.18
15529;BME280;7866;52.280;9.500;2023-04-15T17:08:43;100083.22;;;11.63;94.88
15529;BME280;7866;52.280;9.500;2023-04-15T17:13:45;100090.16;;;11.57;94.81
15529;BME280;7866;52.280;9.500;2023-04-15T17:18:48;100087.16;;;11.52;95.42
15529;BME280;7866;52.280;9.500;2023-04-15T17:23:51;100095.94;;;11.46;95.92
15529;BME280;7866;52.280;9.500;2023-04-15T17:28:53;100108.69;;;11.44;97.51
15529;BME280;7866;52.280;9.500;2023-04-15T17:33:55;100109.34;;;11.46;96.30
15529;BME280;7866;52.280;9.500;2023-04-15T17:38:58;100112.69;;;11.48;96.07
15529;BME280;7866;52.280;9.500;2023-04-15T17:44:00;100113.69;;;11.47;96.89
15529;BME280;7866;52.280;9.500;2023-04-15T17:49:01;100129.31;;;11.44;97.65
15529;BME280;7866;52.280;9.500;2023-04-15T17:54:06;100130.97;;;11.45;97.64
15529;BME280;7866;52.280;9.500;2023-04-15T17:59:08;100136.16;;;11.46;97.76
15529;BME280;7866;52.280;9.500;2023-04-15T18:04:09;100138.84;;;11.46;97.23
15529;BME280;7866;52.280;9.500;2023-04-15T18:09:12;100147.06;;;11.45;98.49
15529;BME280;7866;52.280;9.500;2023-04-15T18:14:14;100155.78;;;11.47;98.26
15529;BME280;7866;52.280;9.500;2023-04-15T18:19:16;100164.84;;;11.46;97.36
15529;BME280;7866;52.280;9.500;2023-04-15T18:24:19;100163.34;;;11.43;97.20
15529;BME280;7866;52.280;9.500;2023-04-15T18:29:20;100173.44;;;11.41;97.88
15529;BME280;7866;52.280;9.500;2023-04-15T18:34:22;100192.53;;;11.38;97.09
15529;BME280;7866;52.280;9.500;2023-04-15T18:39:26;100197.06;;;11.38;97.14
15529;BME280;7866;52.280;9.500;2023-04-15T18:44:28;100198.06;;;11.37;96.74
15529;BME280;7866;52.280;9.500;2023-04-15T18:49:30;100209.81;;;11.35;97.66
15529;BME280;7866;52.280;9.500;2023-04-15T18:54:34;100214.53;;;11.33;97.29
15529;BME280;7866;52.280;9.500;2023-04-15T18:59:35;100222.72;;;11.32;97.32
15529;BME280;7866;52.280;9.500;2023-04-15T19:04:37;100228.09;;;11.32;97.34
15529;BME280;7866;52.280;9.500;2023-04-15T19:09:41;100240.84;;;11.30;97.08
15529;BME280;7866;52.280;9.500;2023-04-15T19:14:42;100241.84;;;11.29;97.51
15529;BME280;7866;52.280;9.500;2023-04-15T19:19:44;100239.00;;;11.30;96.90
15529;BME280;7866;52.280;9.500;2023-04-15T19:24:47;100245.88;;;11.25;96.03
15529;BME280;7866;52.280;9.500;2023-04-15T19:29:49;100259.63;;;11.30;95.97
15529;BME280;7866;52.280;9.500;2023-04-15T19:34:50;100267.66;;;11.30;95.38
15529;BME280;7866;52.280;9.500;2023-04-15T19:39:54;100268.50;;;11.30;95.21
15529;BME280;7866;52.280;9.500;2023-04-15T19:44:55;100277.03;;;11.34;94.64
15529;BME280;7866;52.280;9.500;2023-04-15T19:49:57;100279.03;;;11.32;94.53
15529;BME280;7866;52.280;9.500;2023-04-15T19:55:00;100283.41;;;11.33;94.73
15529;BME280;7866;52.280;9.500;2023-04-15T20:00:03;100293.28;;;11.32;94.27
15529;BME280;7866;52.280;9.500;2023-04-15T20:05:06;100292.09;;;11.35;94.08
15529;BME280;7866;52.280;9.500;2023-04-15T20:10:11;100290.78;;;11.31;93.08
15529;BME280;7866;52.280;9.500;2023-04-15T20:15:12;100294.63;;;11.28;94.28
15529;BME280;7866;52.280;9.500;2023-04-15T20:20:15;100302.19;;;11.25;93.92
15529;BME280;7866;52.280;9.500;2023-04-15T20:25:18;100306.22;;;11.21;94.29
15529;BME280;7866;52.280;9.500;2023-04-15T20:30:19;100315.97;;;11.22;93.69
15529;BME280;7866;52.280;9.500;2023-04-15T20:35:21;100313.63;;;11.19;93.50
15529;BME280;7866;52.280;9.500;2023-04-15T20:40:25;100323.31;;;11.20;93.21
15529;BME280;7866;52.280;9.500;2023-04-15T20:45:27;100320.84;;;11.18;92.75
15529;BME280;7866;52.280;9.500;2023-04-15T20:50:29;100316.63;;;11.16;92.57
15529;BME280;7866;52.280;9.500;2023-04-15T20:55:32;100328.06;;;11.09;92.46
15529;BME280;7866;52.280;9.500;2023-04-15T21:00:34;100334.41;;;11.08;92.08
15529;BME280;7866;52.280;9.500;2023-04-15T21:05:35;100332.44;;;11.02;92.03
15529;BME280;7866;52.280;9.500;2023-04-15T21:10:39;100346.19;;;10.99;92.00
15529;BME280;7866;52.280;9.500;2023-04-15T21:15:41;100343.00;;;10.96;91.28
15529;BME280;7866;52.280;9.500;2023-04-15T21:20:44;100346.88;;;10.93;91.09
15529;BME280;7866;52.280;9.500;2023-04-15T21:25:47;100357.25;;;10.88;91.47
15529;BME280;7866;52.280;9.500;2023-04-15T21:30:48;100359.44;;;10.84;91.26
15529;BME280;7866;52.280;9.500;2023-04-15T21:35:51;100374.19;;;10.80;90.91
15529;BME280;7866;52.280;9.500;2023-04-15T21:40:54;100375.69;;;10.75;91.49
15529;BME280;7866;52.280;9.500;2023-04-15T21:45:56;100382.72;;;10.68;91.36
15529;BME280;7866;52.280;9.500;2023-04-15T21:50:57;100391.09;;;10.65;91.37
15529;BME280;7866;52.280;9.500;2023-04-15T21:56:01;100395.13;;;10.60;91.42
15529;BME280;7866;52.280;9.500;2023-04-15T22:01:03;100401.66;;;10.50;90.56
15529;BME280;7866;52.280;9.500;2023-04-15T22:06:04;100407.16;;;10.48;90.93
15529;BME280;7866;52.280;9.500;2023-04-15T22:11:08;100406.84;;;10.51;90.79
15529;BME280;7866;52.280;9.500;2023-04-15T22:16:10;100410.88;;;10.47;90.23
15529;BME280;7866;52.280;9.500;2023-04-15T22:21:12;100409.19;;;10.38;90.26
15529;BME280;7866;52.280;9.500;2023-04-15T22:26:15;100418.06;;;10.39;90.38
15529;BME280;7866;52.280;9.500;2023-04-15T22:31:17;100421.91;;;10.36;90.31
15529;BME280;7866;52.280;9.500;2023-04-15T22:36:18;100429.09;;;10.35;90.53
15529;BME280;7866;52.280;9.500;2023-04-15T22:41:21;100431.94;;;10.34;90.65
15529;BME280;7866;52.280;9.500;2023-04-15T22:46:23;100431.25;;;10.32;90.16
15529;BME280;7866;52.280;9.500;2023-04-15T22:51:25;100434.59;;;10.26;90.67
15529;BME280;7866;52.280;9.500;2023-04-15T22:56:29;100439.97;;;10.26;90.65
15529;BME280;7866;52.280;9.500;2023-04-15T23:01:30;100445.31;;;10.26;90.94
15529;BME280;7866;52.280;9.500;2023-04-15T23:06:32;100453.16;;;10.27;90.22
15529;BME280;7866;52.280;9.500;2023-04-15T23:11:35;100450.50;;;10.27;90.54
15529;BME280;7866;52.280;9.500;2023-04-15T23:16:37;100463.34;;;10.24;90.31
15529;BME280;7866;52.280;9.500;2023-04-15T23:21:38;100462.50;;;10.23;90.83
15529;BME280;7866;52.280;9.500;2023-04-15T23:26:42;100463.13;;;10.17;90.78
15529;BME280;7866;52.280;9.500;2023-04-15T23:31:43;100459.81;;;10.15;90.51
15529;BME280;7866;52.280;9.500;2023-04-15T23:36:45;100461.78;;;10.13;90.64
15529;BME280;7866;52.280;9.500;2023-04-15T23:41:48;100475.53;;;10.18;90.93
15529;BME280;7866;52.280;9.500;2023-04-15T23:46:50;100470.69;;;10.14;90.91
15529;BME280;7866;52.280;9.500;2023-04-15T23:51:51;100474.72;;;10.18;90.95
15529;BME280;7866;52.280;9.500;2023-04-15T23:56:54;100466.31;;;10.12;90.56
